Time;durP1;ratioP1;P1;durP2;ratioP2;P2;SDS_P1;SDS_P2;PMS_P1;PMS_P2;Temp;Humidity;BMP_temperature;BMP_pressure;BME280_temperature;BME280_humidity;BME280_pressure;Samples;Min_cycle;Max_cycle;Signal;HPM_P1;HPM_P2
2023/08/24 00:00:29;;;;;;;6.32;2.70;;;;;;;;;;5102221;28;20102;-76
2023/08/24 00:02:55;;;;;;;8.80;2.28;;;;;;;;;;5105044;28;20043;-81
2023/08/24 00:05:20;;;;;;;11.23;2.47;;;;;;;;;;5103905;28;20027;-78
2023/08/24 00:07:48;;;;;;;6.75;2.33;;;;;;;;;;5101802;28;20271;-75
2023/08/24 00:10:13;;;;;;;3.75;2.38;;;;;;;;;;5104759;28;20080;-77
2023/08/24 00:12:39;;;;;;;5.00;2.38;;;;;;;;;;5103833;28;20429;-78
2023/08/24 00:15:08;;;;;;;5.35;2.38;;;;;;;;;;5104562;28;20028;-78
2023/08/24 00:17:34;;;;;;;3.70;2.50;;;;;;;;;;5102982;28;20020;-79
2023/08/24 00:19:59;;;;;;;9.00;2.67;;;;;;;;;;5103460;28;20506;-78
2023/08/24 00:22:24;;;;;;;7.72;2.63;;;;;;;;;;5103349;28;20407;-78
2023/08/24 00:24:49;;;;;;;9.67;2.67;;;;;;;;;;5106308;28;20115;-79
2023/08/24 00:27:14;;;;;;;4.80;2.50;;;;;;;;;;5106363;28;20261;-78
2023/08/24 00:29:40;;;;;;;6.70;2.30;;;;;;;;;;5102998;28;20683;-78
2023/08/24 00:32:05;;;;;;;3.78;2.50;;;;;;;;;;5103490;28;20309;-78
2023/08/24 00:34:31;;;;;;;3.97;2.70;;;;;;;;;;5103360;28;20028;-78
2023/08/24 00:36:57;;;;;;;4.57;2.42;;;;;;;;;;5101231;28;20425;-78
2023/08/24 00:39:22;;;;;;;4.15;2.70;;;;;;;;;;5102636;28;20088;-78
2023/08/24 00:41:47;;;;;;;5.05;2.63;;;;;;;;;;5103861;28;20031;-78
2023/08/24 00:44:13;;;;;;;4.57;2.60;;;;;;;;;;5106836;28;20028;-78
2023/08/24 00:46:38;;;;;;;4.03;2.55;;;;;;;;;;5107300;28;20031;-78
2023/08/24 00:49:03;;;;;;;3.30;2.55;;;;;;;;;;5107886;28;20032;-77
2023/08/24 00:51:29;;;;;;;4.07;2.70;;;;;;;;;;5106325;28;20196;-78
2023/08/24 00:53:54;;;;;;;3.38;2.58;;;;;;;;;;5107100;28;20062;-78
2023/08/24 00:56:24;;;;;;;4.82;2.60;;;;;;;;;;5105781;28;20081;-78
2023/08/24 00:58:50;;;;;;;3.17;2.55;;;;;;;;;;5108261;28;20024;-79
2023/08/24 01:01:17;;;;;;;7.78;2.50;;;;;;;;;;5108412;28;20032;-78
2023/08/24 01:03:42;;;;;;;4.40;2.80;;;;;;;;;;5108058;28;20027;-78
2023/08/24 01:06:07;;;;;;;5.25;2.50;;;;;;;;;;5106554;28;20024;-78
2023/08/24 01:08:33;;;;;;;4.63;2.38;;;;;;;;;;5102618;28;20031;-78
2023/08/24 01:11:26;;;;;;;4.35;2.60;;;;;;;;;;5104003;28;20020;-77
2023/08/24 01:14:14;;;;;;;4.10;2.75;;;;;;;;;;5103931;28;20491;-77
2023/08/24 01:16:43;;;;;;;3.75;2.85;;;;;;;;;;5106588;28;20028;-77
2023/08/24 01:19:33;;;;;;;5.72;2.70;;;;;;;;;;5106644;28;20091;-77
2023/08/24 01:22:01;;;;;;;4.45;2.72;;;;;;;;;;5106370;28;20099;-77
2023/08/24 01:25:04;;;;;;;4.70;2.90;;;;;;;;;;5106187;28;20093;-78
2023/08/24 01:27:34;;;;;;;4.25;2.90;;;;;;;;;;5081982;28;20537;-78
2023/08/24 01:30:00;;;;;;;3.25;2.72;;;;;;;;;;5105073;28;20035;-79
2023/08/24 01:32:26;;;;;;;4.22;3.10;;;;;;;;;;5101159;28;20020;-77
2023/08/24 01:34:51;;;;;;;4.30;2.87;;;;;;;;;;5102579;28;20024;-79
2023/08/24 01:37:16;;;;;;;5.70;2.88;;;;;;;;;;5104936;28;20257;-79
2023/08/24 01:39:57;;;;;;;4.95;2.90;;;;;;;;;;5107620;28;20402;-79
2023/08/24 01:42:26;;;;;;;3.90;2.90;;;;;;;;;;5106458;28;20025;-79
2023/08/24 01:44:56;;;;;;;7.07;3.00;;;;;;;;;;5107576;28;20062;-79
2023/08/24 01:47:22;;;;;;;4.95;2.88;;;;;;;;;;5107830;28;20046;-79
2023/08/24 01:49:48;;;;;;;6.22;2.80;;;;;;;;;;5107945;28;20039;-79
2023/08/24 01:52:14;;;;;;;6.18;3.15;;;;;;;;;;5107347;28;20455;-79
2023/08/24 01:54:40;;;;;;;5.65;2.90;;;;;;;;;;5106735;28;20541;-78
2023/08/24 01:57:06;;;;;;;4.05;2.92;;;;;;;;;;5107945;28;20046;-79
2023/08/24 01:59:31;;;;;;;8.20;3.25;;;;;;;;;;5106114;28;20028;-79
2023/08/24 02:01:56;;;;;;;5.50;2.92;;;;;;;;;;5108147;28;20071;-79
2023/08/24 02:04:22;;;;;;;3.85;2.97;;;;;;;;;;5107583;28;20027;-79
2023/08/24 02:06:48;;;;;;;3.80;2.63;;;;;;;;;;5107700;28;20050;-78
2023/08/24 02:09:13;;;;;;;6.00;2.90;;;;;;;;;;5107821;28;20261;-78
2023/08/24 02:11:38;;;;;;;7.47;3.00;;;;;;;;;;5106252;28;20111;-78
2023/08/24 02:14:03;;;;;;;5.23;2.93;;;;;;;;;;5106597;28;20027;-78
2023/08/24 02:16:30;;;;;;;5.97;3.20;;;;;;;;;;5104837;28;20253;-78
2023/08/24 02:18:55;;;;;;;4.63;3.10;;;;;;;;;;5104368;28;20471;-78
2023/08/24 02:21:20;;;;;;;4.05;2.80;;;;;;;;;;5106134;28;20024;-78
2023/08/24 02:23:45;;;;;;;4.05;3.05;;;;;;;;;;5107384;28;20115;-79
2023/08/24 02:26:11;;;;;;;5.43;3.33;;;;;;;;;;5103909;28;20020;-77
2023/08/24 02:28:37;;;;;;;8.05;3.28;;;;;;;;;;5102282;28;20727;-78
2023/08/24 02:31:03;;;;;;;6.63;3.50;;;;;;;;;;5105784;28;20027;-79
2023/08/24 02:33:29;;;;;;;5.40;3.08;;;;;;;;;;5109823;28;20020;-79
2023/08/24 02:35:54;;;;;;;4.20;3.00;;;;;;;;;;5109898;28;20100;-79
2023/08/24 02:38:20;;;;;;;4.53;3.17;;;;;;;;;;5103266;28;20054;-78
2023/08/24 02:40:45;;;;;;;4.87;3.30;;;;;;;;;;5101724;28;20536;-78
2023/08/24 02:43:10;;;;;;;4.65;3.13;;;;;;;;;;5104919;28;20367;-78
2023/08/24 02:45:35;;;;;;;8.90;3.57;;;;;;;;;;5099630;28;20032;-77
2023/08/24 02:48:01;;;;;;;3.80;3.17;;;;;;;;;;5101487;28;20267;-78
2023/08/24 02:50:26;;;;;;;6.97;3.27;;;;;;;;;;5102275;28;20034;-79
2023/08/24 02:52:52;;;;;;;3.75;3.20;;;;;;;;;;5100375;28;20253;-77
2023/08/24 02:55:17;;;;;;;6.80;3.40;;;;;;;;;;5098989;28;20028;-78
2023/08/24 02:57:43;;;;;;;5.50;3.33;;;;;;;;;;5102438;28;20016;-79
2023/08/24 03:00:09;;;;;;;5.20;3.17;;;;;;;;;;5107012;28;20048;-78
2023/08/24 03:02:36;;;;;;;5.85;3.20;;;;;;;;;;5104217;28;20077;-78
2023/08/24 03:05:01;;;;;;;7.38;3.10;;;;;;;;;;5105454;28;20024;-78
2023/08/24 03:07:27;;;;;;;5.10;3.15;;;;;;;;;;5099876;28;20047;-79
2023/08/24 03:09:52;;;;;;;7.80;3.35;;;;;;;;;;5106546;28;20024;-79
2023/08/24 03:12:17;;;;;;;5.28;3.22;;;;;;;;;;5102489;28;20044;-79
2023/08/24 03:14:43;;;;;;;3.50;3.20;;;;;;;;;;5106720;28;20028;-79
2023/08/24 03:17:08;;;;;;;4.00;3.10;;;;;;;;;;5102215;28;20020;-80
2023/08/24 03:19:33;;;;;;;7.73;3.47;;;;;;;;;;5096904;28;20747;-79
2023/08/24 03:21:58;;;;;;;5.53;3.03;;;;;;;;;;5095373;28;20389;-78
2023/08/24 03:24:24;;;;;;;4.40;3.30;;;;;;;;;;5100834;28;20305;-78
2023/08/24 03:26:49;;;;;;;4.65;3.38;;;;;;;;;;5102675;28;20134;-78
2023/08/24 03:29:14;;;;;;;7.13;3.50;;;;;;;;;;5098463;28;20479;-77
2023/08/24 03:31:39;;;;;;;4.13;3.10;;;;;;;;;;5098820;28;20278;-78
2023/08/24 03:34:05;;;;;;;3.97;3.25;;;;;;;;;;5102855;28;20027;-78
2023/08/24 03:36:30;;;;;;;4.68;3.38;;;;;;;;;;5100727;28;20024;-77
2023/08/24 03:38:55;;;;;;;4.82;3.40;;;;;;;;;;5100875;28;20035;-78
2023/08/24 03:41:21;;;;;;;5.00;3.33;;;;;;;;;;5101854;28;20020;-77
2023/08/24 03:43:46;;;;;;;3.97;3.40;;;;;;;;;;5101969;28;20249;-78
2023/08/24 03:46:11;;;;;;;6.87;3.23;;;;;;;;;;5102859;28;20294;-77
2023/08/24 03:48:36;;;;;;;4.50;3.47;;;;;;;;;;5100170;28;20781;-78
2023/08/24 03:51:02;;;;;;;12.18;3.42;;;;;;;;;;5100736;28;20092;-76
2023/08/24 03:53:27;;;;;;;7.72;3.55;;;;;;;;;;5101360;28;20012;-77
2023/08/24 03:55:52;;;;;;;6.38;3.47;;;;;;;;;;5099510;28;20024;-78
2023/08/24 03:58:18;;;;;;;5.68;3.83;;;;;;;;;;5100438;28;20016;-78
2023/08/24 04:00:44;;;;;;;6.05;3.65;;;;;;;;;;5101700;28;20024;-78
2023/08/24 04:03:10;;;;;;;5.22;3.42;;;;;;;;;;5101576;28;20128;-79
2023/08/24 04:05:36;;;;;;;4.00;3.30;;;;;;;;;;5103269;28;20016;-79
2023/08/24 04:08:02;;;;;;;3.80;3.20;;;;;;;;;;5105523;28;20066;-79
2023/08/24 04:10:27;;;;;;;4.90;3.35;;;;;;;;;;5104247;28;20055;-78
2023/08/24 04:12:53;;;;;;;6.60;3.42;;;;;;;;;;5101880;28;20020;-78
2023/08/24 04:15:18;;;;;;;6.15;3.83;;;;;;;;;;5102222;28;20096;-78
2023/08/24 04:17:43;;;;;;;5.15;3.30;;;;;;;;;;5101940;28;20034;-78
2023/08/24 04:20:09;;;;;;;4.13;3.40;;;;;;;;;;5103056;28;20027;-78
2023/08/24 04:22:35;;;;;;;5.40;3.47;;;;;;;;;;5101760;28;20288;-78
2023/08/24 04:25:00;;;;;;;4.38;3.38;;;;;;;;;;5103075;28;20032;-79
2023/08/24 04:27:25;;;;;;;6.03;3.55;;;;;;;;;;5101799;28;20035;-79
2023/08/24 04:29:51;;;;;;;5.33;3.30;;;;;;;;;;5103513;28;20050;-78
2023/08/24 04:32:16;;;;;;;7.25;3.50;;;;;;;;;;5103605;28;20263;-78
2023/08/24 04:34:42;;;;;;;5.78;3.42;;;;;;;;;;5103382;28;20089;-79
2023/08/24 04:37:07;;;;;;;4.87;3.53;;;;;;;;;;5105266;28;20024;-78
2023/08/24 04:39:32;;;;;;;11.15;3.72;;;;;;;;;;5104536;28;20310;-78
2023/08/24 04:41:57;;;;;;;6.40;3.42;;;;;;;;;;5104456;28;20024;-79
2023/08/24 04:44:24;;;;;;;5.35;3.70;;;;;;;;;;5104034;28;20059;-78
2023/08/24 04:46:49;;;;;;;7.38;3.70;;;;;;;;;;5102249;28;20058;-78
2023/08/24 04:49:15;;;;;;;4.15;3.58;;;;;;;;;;5091972;28;20053;-78
2023/08/24 04:51:40;;;;;;;5.72;3.70;;;;;;;;;;5094615;28;20044;-78
2023/08/24 04:54:05;;;;;;;4.10;3.35;;;;;;;;;;5093486;28;20437;-78
2023/08/24 04:56:30;;;;;;;7.63;3.23;;;;;;;;;;5090959;28;20111;-77
2023/08/24 04:58:57;;;;;;;5.38;3.60;;;;;;;;;;5095350;28;20260;-77
2023/08/24 05:01:24;;;;;;;3.90;3.20;;;;;;;;;;5096946;28;20046;-78
2023/08/24 05:03:50;;;;;;;5.82;3.38;;;;;;;;;;5099188;28;20399;-77
2023/08/24 05:06:15;;;;;;;7.03;3.70;;;;;;;;;;5096037;28;20016;-77
2023/08/24 05:08:40;;;;;;;5.05;3.30;;;;;;;;;;5097658;28;20031;-78
2023/08/24 05:11:13;;;;;;;5.25;3.80;;;;;;;;;;5097073;28;20111;-77
2023/08/24 05:13:40;;;;;;;9.98;4.00;;;;;;;;;;5098647;28;20020;-77
2023/08/24 05:16:05;;;;;;;13.00;3.53;;;;;;;;;;5093728;28;20028;-77
2023/08/24 05:18:30;;;;;;;7.77;3.67;;;;;;;;;;5096824;28;20026;-77
2023/08/24 05:20:55;;;;;;;5.53;3.60;;;;;;;;;;5095663;28;20253;-77
2023/08/24 05:23:21;;;;;;;6.87;4.20;;;;;;;;;;5097923;28;20115;-79
2023/08/24 05:25:46;;;;;;;5.50;4.20;;;;;;;;;;5097412;28;20271;-76
2023/08/24 05:28:11;;;;;;;5.63;3.65;;;;;;;;;;5098109;28;20024;-78
2023/08/24 05:30:37;;;;;;;7.33;4.00;;;;;;;;;;5102592;28;20023;-79
2023/08/24 05:33:02;;;;;;;7.13;3.87;;;;;;;;;;5105830;28;20256;-77
2023/08/24 05:35:28;;;;;;;9.38;3.88;;;;;;;;;;5104193;28;20623;-81
2023/08/24 05:37:53;;;;;;;6.78;3.58;;;;;;;;;;5104497;28;20031;-77
2023/08/24 05:40:18;;;;;;;8.93;3.67;;;;;;;;;;5102952;28;20028;-77
2023/08/24 05:42:44;;;;;;;6.00;3.50;;;;;;;;;;5101659;28;20078;-78
2023/08/24 05:45:09;;;;;;;7.00;3.78;;;;;;;;;;5102549;28;20257;-79
2023/08/24 05:47:34;;;;;;;7.30;3.85;;;;;;;;;;5101691;28;20030;-77
2023/08/24 05:50:00;;;;;;;5.70;3.33;;;;;;;;;;5102363;28;20024;-81
2023/08/24 05:52:28;;;;;;;5.38;3.60;;;;;;;;;;5104346;28;20240;-80
2023/08/24 05:54:53;;;;;;;6.28;3.88;;;;;;;;;;5103146;28;20387;-81
2023/08/24 05:57:18;;;;;;;10.48;3.83;;;;;;;;;;5104512;28;20113;-78
2023/08/24 05:59:44;;;;;;;7.30;3.90;;;;;;;;;;5105425;28;20053;-78
2023/08/24 06:02:09;;;;;;;4.93;3.60;;;;;;;;;;5103633;28;20276;-79
2023/08/24 06:04:34;;;;;;;6.47;3.73;;;;;;;;;;5100743;28;20278;-78
2023/08/24 06:07:00;;;;;;;8.35;3.47;;;;;;;;;;5099800;28;20734;-78
2023/08/24 06:09:25;;;;;;;3.90;3.17;;;;;;;;;;5098902;28;20042;-77
2023/08/24 06:11:51;;;;;;;5.03;3.70;;;;;;;;;;5098277;28;20020;-78
2023/08/24 06:14:16;;;;;;;3.90;3.25;;;;;;;;;;5098905;28;20550;-78
2023/08/24 06:16:41;;;;;;;3.67;3.00;;;;;;;;;;5100713;28;20024;-78
2023/08/24 06:19:06;;;;;;;7.65;3.95;;;;;;;;;;5097147;28;20340;-78
2023/08/24 06:21:32;;;;;;;5.47;3.42;;;;;;;;;;5098877;28;20486;-78
2023/08/24 06:23:57;;;;;;;6.78;3.50;;;;;;;;;;5101144;28;20103;-78
2023/08/24 06:26:22;;;;;;;6.25;3.47;;;;;;;;;;5100170;28;20029;-78
2023/08/24 06:28:48;;;;;;;7.20;3.70;;;;;;;;;;5101341;28;20028;-78
2023/08/24 06:31:14;;;;;;;7.13;3.20;;;;;;;;;;5100399;28;20030;-78
2023/08/24 06:33:39;;;;;;;6.25;3.45;;;;;;;;;;5099045;28;20547;-77
2023/08/24 06:36:05;;;;;;;5.55;3.53;;;;;;;;;;5100013;28;20020;-78
2023/08/24 06:38:31;;;;;;;7.93;3.63;;;;;;;;;;5099630;28;20024;-77
2023/08/24 06:41:00;;;;;;;4.28;3.28;;;;;;;;;;5098748;28;20119;-78
2023/08/24 06:43:26;;;;;;;5.13;3.20;;;;;;;;;;5099813;28;20027;-78
2023/08/24 06:45:51;;;;;;;4.75;3.10;;;;;;;;;;5099036;28;20028;-78
2023/08/24 06:48:17;;;;;;;4.75;3.17;;;;;;;;;;5101049;28;20020;-77
2023/08/24 06:50:43;;;;;;;6.93;3.10;;;;;;;;;;5099268;28;20016;-78
2023/08/24 06:53:08;;;;;;;6.88;3.30;;;;;;;;;;5099431;28;20079;-78
2023/08/24 06:55:33;;;;;;;6.55;3.30;;;;;;;;;;5101228;28;20395;-78
2023/08/24 06:57:59;;;;;;;5.13;3.20;;;;;;;;;;5101085;28;20035;-78
2023/08/24 07:00:25;;;;;;;6.90;3.20;;;;;;;;;;5102225;28;20024;-78
2023/08/24 07:02:50;;;;;;;10.45;3.58;;;;;;;;;;5098906;28;20027;-78
2023/08/24 07:05:18;;;;;;;3.55;3.10;;;;;;;;;;5100187;28;20395;-78
2023/08/24 07:07:47;;;;;;;4.85;2.83;;;;;;;;;;5101699;28;20023;-78
2023/08/24 07:10:13;;;;;;;4.80;3.15;;;;;;;;;;5100352;28;20027;-79
2023/08/24 07:12:41;;;;;;;7.78;3.22;;;;;;;;;;5099969;28;20065;-79
2023/08/24 07:15:34;;;;;;;5.28;3.38;;;;;;;;;;5100171;28;20479;-78
2023/08/24 07:17:59;;;;;;;3.97;2.72;;;;;;;;;;5099435;28;20055;-78
2023/08/24 07:20:25;;;;;;;5.88;2.85;;;;;;;;;;5100134;28;20016;-78
2023/08/24 07:22:50;;;;;;;3.80;2.85;;;;;;;;;;5100017;28;20048;-78
2023/08/24 07:25:15;;;;;;;6.45;3.22;;;;;;;;;;5100473;28;20044;-78
2023/08/24 07:27:41;;;;;;;7.03;2.90;;;;;;;;;;5099249;28;20459;-78
2023/08/24 07:30:07;;;;;;;7.20;3.20;;;;;;;;;;5098208;28;20051;-78
2023/08/24 07:32:33;;;;;;;4.55;3.10;;;;;;;;;;5100267;28;20276;-77
2023/08/24 07:35:01;;;;;;;4.07;3.08;;;;;;;;;;5098680;28;20475;-78
2023/08/24 07:37:27;;;;;;;8.85;3.33;;;;;;;;;;5099248;28;20031;-78
2023/08/24 07:39:52;;;;;;;4.43;2.95;;;;;;;;;;5099941;28;20031;-78
2023/08/24 07:42:23;;;;;;;8.00;3.03;;;;;;;;;;5098592;28;20075;-80
2023/08/24 07:44:49;;;;;;;6.00;3.17;;;;;;;;;;5095599;28;20260;-78
2023/08/24 07:47:15;;;;;;;3.97;3.22;;;;;;;;;;5093584;28;20030;-78
2023/08/24 07:49:44;;;;;;;4.88;2.97;;;;;;;;;;5099382;28;20549;-79
2023/08/24 07:52:09;;;;;;;9.90;3.20;;;;;;;;;;5101241;28;20039;-79
2023/08/24 07:54:35;;;;;;;5.57;2.70;;;;;;;;;;5101082;28;20035;-79
2023/08/24 07:57:00;;;;;;;6.20;2.80;;;;;;;;;;5099506;28;20039;-79
2023/08/24 07:59:26;;;;;;;5.72;2.70;;;;;;;;;;5101080;28;20016;-78
2023/08/24 08:01:51;;;;;;;7.93;2.90;;;;;;;;;;5100865;28;20028;-79
2023/08/24 08:04:16;;;;;;;3.38;2.60;;;;;;;;;;5099116;28;20262;-78
2023/08/24 08:06:41;;;;;;;10.70;3.03;;;;;;;;;;5099183;28;20557;-77
2023/08/24 08:09:07;;;;;;;5.93;2.70;;;;;;;;;;5098463;28;20619;-79
2023/08/24 08:11:38;;;;;;;4.60;3.40;;;;;;;;;;5096379;28;20272;-77
2023/08/24 08:14:04;;;;;;;7.15;2.80;;;;;;;;;;5096245;28;20132;-77
2023/08/24 08:16:30;;;;;;;29.45;3.90;;;;;;;;;;5095409;28;20066;-77
2023/08/24 08:18:55;;;;;;;5.10;2.85;;;;;;;;;;5094114;28;20053;-78
2023/08/24 08:21:22;;;;;;;4.37;2.87;;;;;;;;;;5095807;28;20023;-78
2023/08/24 08:23:48;;;;;;;5.90;2.72;;;;;;;;;;5094437;28;20256;-79
2023/08/24 08:26:13;;;;;;;5.00;2.78;;;;;;;;;;5096472;28;20051;-80
2023/08/24 08:28:39;;;;;;;7.97;2.60;;;;;;;;;;5096367;28;20016;-77
2023/08/24 08:31:04;;;;;;;4.10;2.47;;;;;;;;;;5094066;28;20040;-79
2023/08/24 08:33:30;;;;;;;9.85;2.88;;;;;;;;;;5093981;28;20031;-80
2023/08/24 08:35:56;;;;;;;4.20;2.60;;;;;;;;;;5094042;28;20020;-79
2023/08/24 08:38:25;;;;;;;7.43;2.60;;;;;;;;;;5092236;28;20028;-78
2023/08/24 08:41:02;;;;;;;6.05;2.40;;;;;;;;;;5092233;28;20046;-78
2023/08/24 08:43:27;;;;;;;3.45;2.60;;;;;;;;;;5094001;28;20483;-78
2023/08/24 08:45:55;;;;;;;5.53;2.47;;;;;;;;;;5092874;28;20024;-76
2023/08/24 08:48:21;;;;;;;5.13;2.47;;;;;;;;;;5093069;28;20028;-77
2023/08/24 08:50:48;;;;;;;4.50;2.20;;;;;;;;;;5093682;28;20498;-79
2023/08/24 08:53:15;;;;;;;4.25;2.85;;;;;;;;;;5094061;28;20025;-76
2023/08/24 08:55:41;;;;;;;4.70;2.20;;;;;;;;;;5094179;28;20500;-78
2023/08/24 08:58:07;;;;;;;3.13;2.30;;;;;;;;;;5096951;28;20020;-77
2023/08/24 09:00:33;;;;;;;4.18;2.25;;;;;;;;;;5098582;28;20065;-78
2023/08/24 09:02:59;;;;;;;6.28;2.40;;;;;;;;;;5098842;28;20028;-78
2023/08/24 09:05:26;;;;;;;2.53;2.20;;;;;;;;;;5101159;28;20052;-80
2023/08/24 09:07:53;;;;;;;9.35;2.50;;;;;;;;;;5104003;28;20157;-79
2023/08/24 09:10:18;;;;;;;3.00;2.08;;;;;;;;;;5104689;28;20020;-78
2023/08/24 09:12:43;;;;;;;4.00;2.45;;;;;;;;;;5104384;28;20016;-79
2023/08/24 09:15:09;;;;;;;3.03;2.00;;;;;;;;;;5102973;28;20061;-79
2023/08/24 09:17:35;;;;;;;2.85;2.20;;;;;;;;;;5103151;28;20024;-81
2023/08/24 09:20:09;;;;;;;4.63;2.08;;;;;;;;;;5100232;28;20035;-79
2023/08/24 09:22:36;;;;;;;4.10;2.17;;;;;;;;;;5101022;28;20059;-79
2023/08/24 09:25:03;;;;;;;3.80;2.35;;;;;;;;;;5101575;28;20448;-78
2023/08/24 09:27:29;;;;;;;3.17;2.28;;;;;;;;;;5099868;28;20063;-79
2023/08/24 09:29:54;;;;;;;4.57;2.00;;;;;;;;;;5098422;28;20039;-79
2023/08/24 09:32:31;;;;;;;2.83;2.10;;;;;;;;;;5100817;28;20418;-79
2023/08/24 09:35:02;;;;;;;2.67;1.83;;;;;;;;;;5098527;28;20271;-79
2023/08/24 09:37:32;;;;;;;3.95;1.70;;;;;;;;;;5100571;28;20382;-79
2023/08/24 09:40:08;;;;;;;3.72;2.30;;;;;;;;;;5100896;28;20039;-79
2023/08/24 09:42:41;;;;;;;3.70;1.85;;;;;;;;;;5102827;28;20031;-79
2023/08/24 09:45:09;;;;;;;;;;;;;;;;;;5102279;28;20126;-78
2023/08/24 09:47:35;;;;;;;3.83;1.77;;;;;;;;;;5100985;28;20008;-78
2023/08/24 09:50:00;;;;;;;2.40;1.90;;;;;;;;;;5100331;28;20063;-79
2023/08/24 09:52:31;;;;;;;4.32;2.10;;;;;;;;;;5100281;28;20016;-78
2023/08/24 09:55:08;;;;;;;4.13;1.80;;;;;;;;;;5100238;28;20031;-79
2023/08/24 09:57:38;;;;;;;2.58;1.77;;;;;;;;;;5099208;28;20020;-78
2023/08/24 10:00:10;;;;;;;4.22;2.00;;;;;;;;;;5101167;28;20028;-79
2023/08/24 10:02:50;;;;;;;4.82;1.90;;;;;;;;;;5095915;28;20020;-78
2023/08/24 10:05:20;;;;;;;7.78;2.75;;;;;;;;;;5095548;28;20062;-78
2023/08/24 10:07:59;;;;;;;7.38;2.15;;;;;;;;;;5097951;28;20024;-79
2023/08/24 10:10:27;;;;;;;8.00;2.30;;;;;;;;;;5098364;28;20048;-79
2023/08/24 10:12:59;;;;;;;3.35;2.20;;;;;;;;;;5100222;28;20022;-78
2023/08/24 10:15:26;;;;;;;4.10;2.15;;;;;;;;;;5099579;28;20491;-79
2023/08/24 10:17:53;;;;;;;4.80;2.17;;;;;;;;;;5099523;28;20028;-78
2023/08/24 10:20:20;;;;;;;3.83;1.67;;;;;;;;;;5099621;28;20034;-79
2023/08/24 10:22:50;;;;;;;6.85;1.88;;;;;;;;;;5099547;28;20080;-78
2023/08/24 10:25:16;;;;;;;2.53;1.92;;;;;;;;;;5099250;28;20406;-78
2023/08/24 10:27:47;;;;;;;3.97;1.95;;;;;;;;;;5099595;28;20023;-79
2023/08/24 10:30:14;;;;;;;3.90;2.08;;;;;;;;;;5098695;28;20504;-79
2023/08/24 10:32:41;;;;;;;3.08;1.90;;;;;;;;;;5097436;28;20028;-78
2023/08/24 10:35:07;;;;;;;7.05;2.05;;;;;;;;;;5098574;28;20382;-77
2023/08/24 10:37:34;;;;;;;5.05;2.17;;;;;;;;;;5096104;28;20027;-77
2023/08/24 10:40:00;;;;;;;3.80;2.10;;;;;;;;;;5096826;28;20020;-77
2023/08/24 10:42:42;;;;;;;3.15;1.95;;;;;;;;;;5096349;28;20496;-80
2023/08/24 10:45:08;;;;;;;3.80;2.05;;;;;;;;;;5095651;28;20020;-78
2023/08/24 10:47:45;;;;;;;4.72;2.05;;;;;;;;;;5094372;28;20032;-78
2023/08/24 10:50:11;;;;;;;4.85;1.95;;;;;;;;;;5095573;28;20024;-77
2023/08/24 10:52:39;;;;;;;5.25;2.00;;;;;;;;;;5096828;28;20016;-78
2023/08/24 10:55:20;;;;;;;6.22;1.92;;;;;;;;;;5095517;28;20020;-78
2023/08/24 10:57:58;;;;;;;3.97;2.10;;;;;;;;;;5097223;28;20093;-78
2023/08/24 11:00:28;;;;;;;4.18;2.10;;;;;;;;;;5097813;28;20031;-78
2023/08/24 11:02:54;;;;;;;4.53;2.10;;;;;;;;;;5096028;28;20604;-78
2023/08/24 11:05:30;;;;;;;2.70;2.10;;;;;;;;;;5095469;28;20037;-76
2023/08/24 11:07:57;;;;;;;5.10;2.20;;;;;;;;;;5096013;28;20085;-79
2023/08/24 11:10:31;;;;;;;5.82;2.20;;;;;;;;;;5096037;28;20035;-79
2023/08/24 11:13:16;;;;;;;3.40;2.00;;;;;;;;;;5097882;28;20028;-79
2023/08/24 11:15:47;;;;;;;7.45;2.08;;;;;;;;;;5097147;28;20467;-78
2023/08/24 11:18:25;;;;;;;3.22;1.90;;;;;;;;;;5097409;28;20052;-79
2023/08/24 11:20:59;;;;;;;3.38;1.98;;;;;;;;;;5096709;28;20028;-79
2023/08/24 11:23:26;;;;;;;2.95;1.83;;;;;;;;;;5097304;28;20040;-79
2023/08/24 11:25:59;;;;;;;4.30;2.20;;;;;;;;;;5097072;28;20051;-79
2023/08/24 11:28:26;;;;;;;5.32;1.88;;;;;;;;;;5096597;28;20073;-79
2023/08/24 11:30:52;;;;;;;6.85;2.00;;;;;;;;;;5097309;28;20502;-79
2023/08/24 11:33:29;;;;;;;10.48;2.30;;;;;;;;;;5096363;28;20023;-78
2023/08/24 11:35:54;;;;;;;3.75;2.10;;;;;;;;;;5095268;28;20052;-77
2023/08/24 11:38:20;;;;;;;7.05;2.45;;;;;;;;;;5094757;28;20077;-77
2023/08/24 11:40:51;;;;;;;4.95;2.40;;;;;;;;;;5095572;28;20028;-77
2023/08/24 11:43:26;;;;;;;2.90;2.17;;;;;;;;;;5096722;28;20027;-79
2023/08/24 11:45:55;;;;;;;5.43;2.03;;;;;;;;;;5094989;28;20059;-78
2023/08/24 11:48:26;;;;;;;3.97;2.08;;;;;;;;;;5097070;28;20502;-79
2023/08/24 11:50:51;;;;;;;3.20;2.10;;;;;;;;;;5096581;28;20034;-79
2023/08/24 11:53:17;;;;;;;6.82;3.03;;;;;;;;;;5095337;28;20443;-78
2023/08/24 11:55:43;;;;;;;4.15;2.20;;;;;;;;;;5097646;28;20026;-79
2023/08/24 11:58:15;;;;;;;19.33;3.08;;;;;;;;;;5097424;28;20079;-78
2023/08/24 12:00:40;;;;;;;7.35;2.40;;;;;;;;;;5096615;28;20455;-79
2023/08/24 12:03:06;;;;;;;9.93;2.20;;;;;;;;;;5095004;28;20051;-78
2023/08/24 12:05:31;;;;;;;4.18;2.20;;;;;;;;;;5096146;28;20111;-78
2023/08/24 12:07:59;;;;;;;3.58;2.13;;;;;;;;;;5096145;28;20024;-78
2023/08/24 12:10:24;;;;;;;4.07;2.15;;;;;;;;;;5096750;28;20055;-79
2023/08/24 12:13:01;;;;;;;6.50;2.17;;;;;;;;;;5094607;28;20024;-77
2023/08/24 12:15:28;;;;;;;4.93;2.20;;;;;;;;;;5095990;28;20028;-78
2023/08/24 12:17:53;;;;;;;9.10;2.90;;;;;;;;;;5093908;28;20478;-77
2023/08/24 12:20:22;;;;;;;6.18;1.98;;;;;;;;;;5092059;28;20038;-77
2023/08/24 12:22:52;;;;;;;4.22;2.00;;;;;;;;;;5092754;28;20028;-78
2023/08/24 12:25:17;;;;;;;2.92;1.92;;;;;;;;;;5094163;28;20032;-78
2023/08/24 12:27:43;;;;;;;5.15;2.10;;;;;;;;;;5093512;28;20039;-77
2023/08/24 12:30:10;;;;;;;4.10;1.93;;;;;;;;;;5092537;28;20111;-77
2023/08/24 12:33:02;;;;;;;4.07;2.00;;;;;;;;;;5094693;28;20339;-77
2023/08/24 12:35:28;;;;;;;5.18;2.13;;;;;;;;;;5092104;28;20079;-78
2023/08/24 12:37:53;;;;;;;2.88;2.00;;;;;;;;;;5096347;28;20020;-78
2023/08/24 12:40:18;;;;;;;10.80;2.00;;;;;;;;;;5100979;28;20063;-78
2023/08/24 12:42:43;;;;;;;6.63;2.00;;;;;;;;;;5100840;28;20265;-79
2023/08/24 12:45:09;;;;;;;8.63;2.67;;;;;;;;;;5099989;28;20027;-78
2023/08/24 12:47:37;;;;;;;7.60;2.00;;;;;;;;;;5098111;28;20269;-80
2023/08/24 12:50:03;;;;;;;2.92;1.90;;;;;;;;;;5098188;28;20077;-78
2023/08/24 12:52:28;;;;;;;8.82;2.13;;;;;;;;;;5099280;28;20020;-78
2023/08/24 12:54:54;;;;;;;3.45;2.20;;;;;;;;;;5098861;28;20026;-78
2023/08/24 12:57:19;;;;;;;12.13;2.10;;;;;;;;;;5098604;28;20107;-79
2023/08/24 12:59:44;;;;;;;6.67;2.30;;;;;;;;;;5097621;28;20272;-79
2023/08/24 13:02:09;;;;;;;6.78;2.53;;;;;;;;;;5097988;28;20325;-79
2023/08/24 13:04:35;;;;;;;4.07;1.83;;;;;;;;;;5098881;28;20024;-78
2023/08/24 13:07:00;;;;;;;6.72;2.53;;;;;;;;;;5099264;28;20257;-77
2023/08/24 13:09:25;;;;;;;5.30;2.50;;;;;;;;;;5099636;28;20032;-78
2023/08/24 13:11:51;;;;;;;6.30;2.17;;;;;;;;;;5099804;28;20034;-78
2023/08/24 13:14:16;;;;;;;4.22;2.35;;;;;;;;;;5100101;28;20015;-78
2023/08/24 13:16:41;;;;;;;7.93;2.67;;;;;;;;;;5099085;28;20451;-78
2023/08/24 13:19:07;;;;;;;8.75;2.45;;;;;;;;;;5099324;28;20305;-78
2023/08/24 13:21:32;;;;;;;6.03;2.50;;;;;;;;;;5098934;28;20511;-78
2023/08/24 13:23:58;;;;;;;5.63;2.15;;;;;;;;;;5098833;28;20062;-78
2023/08/24 13:26:23;;;;;;;9.38;2.95;;;;;;;;;;5097742;28;20020;-79
2023/08/24 13:28:49;;;;;;;4.78;2.47;;;;;;;;;;5096895;28;20096;-78
2023/08/24 13:31:14;;;;;;;5.85;2.60;;;;;;;;;;5097114;28;20016;-77
2023/08/24 13:33:40;;;;;;;5.68;2.38;;;;;;;;;;5096907;28;20020;-77
2023/08/24 13:36:05;;;;;;;4.63;2.20;;;;;;;;;;5096571;28;20030;-77
2023/08/24 13:38:30;;;;;;;5.47;2.05;;;;;;;;;;5096915;28;20034;-78
2023/08/24 13:40:55;;;;;;;5.85;2.28;;;;;;;;;;5096165;28;20073;-78
2023/08/24 13:43:21;;;;;;;4.90;2.20;;;;;;;;;;5097435;28;20107;-78
2023/08/24 13:45:46;;;;;;;8.00;2.50;;;;;;;;;;5097826;28;20030;-78
2023/08/24 13:48:11;;;;;;;3.85;2.25;;;;;;;;;;5097836;28;20020;-78
2023/08/24 13:50:37;;;;;;;4.73;2.33;;;;;;;;;;5098410;28;20439;-78
2023/08/24 13:53:02;;;;;;;4.53;2.28;;;;;;;;;;5097522;28;20279;-77
2023/08/24 13:55:27;;;;;;;7.88;2.20;;;;;;;;;;5098440;28;20059;-78
2023/08/24 13:57:52;;;;;;;6.33;2.63;;;;;;;;;;5096253;28;20410;-78
2023/08/24 14:00:18;;;;;;;7.77;2.37;;;;;;;;;;5098621;28;20286;-78
2023/08/24 14:02:44;;;;;;;10.25;2.55;;;;;;;;;;5097530;28;20056;-78
2023/08/24 14:05:10;;;;;;;8.77;2.65;;;;;;;;;;5097814;28;20020;-77
2023/08/24 14:07:36;;;;;;;7.43;2.40;;;;;;;;;;5098108;28;20101;-79
2023/08/24 14:10:02;;;;;;;4.78;2.35;;;;;;;;;;5095842;28;20031;-77
2023/08/24 14:12:27;;;;;;;6.40;2.60;;;;;;;;;;5096866;28;20016;-77
2023/08/24 14:14:53;;;;;;;7.13;2.70;;;;;;;;;;5097567;28;20030;-78
2023/08/24 14:17:18;;;;;;;7.93;2.80;;;;;;;;;;5096564;28;20334;-78
2023/08/24 14:19:43;;;;;;;5.70;2.90;;;;;;;;;;5096869;28;20253;-78
2023/08/24 14:22:08;;;;;;;5.60;2.77;;;;;;;;;;5096754;28;20318;-77
2023/08/24 14:24:34;;;;;;;8.47;2.90;;;;;;;;;;5095452;28;20264;-78
2023/08/24 14:27:00;;;;;;;4.43;2.92;;;;;;;;;;5096974;28;20755;-78
2023/08/24 14:29:25;;;;;;;8.02;3.10;;;;;;;;;;5096982;28;20020;-78
2023/08/24 14:31:50;;;;;;;7.70;2.67;;;;;;;;;;5097560;28;20084;-79
2023/08/24 14:34:15;;;;;;;5.83;2.57;;;;;;;;;;5097686;28;20349;-78
2023/08/24 14:36:41;;;;;;;8.83;2.80;;;;;;;;;;5098232;28;20316;-79
2023/08/24 14:39:07;;;;;;;5.78;3.28;;;;;;;;;;5098562;28;20341;-82
2023/08/24 14:41:32;;;;;;;6.07;2.78;;;;;;;;;;5096030;28;20024;-79